Chattahoochee, Florida
Current Conditions -  °F | °C
As of 10:55 AM on Saturday 20 Dec 2014 (Local Time) from K2J9 Reporting Station
Overcast Overcast  
Wind Chill: 52°   Ceiling: 6000
Heat Index: 52°   Visibility: 9mi
Dew Point: 48°   Wind: 3mph
Humidity: 88%   Direction: 40°NE
Pressure: 30.19"   Gusts: NA
Location:  30.71°N, 84.84°W
Report Text: K2J9 201555Z AUTO 04003KT 9SM BKN060 OVC065 11/09 A3019 RMK AO1 P0508
Loading
Personal Weather Stations






























Interactive Weather Map New forecast layout! Learn more

10-Day Weather Forecast

Advertisements
Track Severe Weather on mobile